Bassano, Canada
Current Conditions -  °F | °C
As of 8:00 AM on Saturday 25 Oct 2014 (Local Time) from CYYC Reporting Station
Overcast Overcast  
Wind Chill: 34°   Ceiling: 8000
Heat Index: 34°   Visibility: 20mi
Dew Point: 21°   Wind: 0mph
Humidity: 60%   Direction: NA
Pressure: 29.96"   Gusts: NA
Location:  50.78°N, 112.47°W
Report Text: CYYC 251400Z 00000KT 20SM OVC080 01/M06 A2996 RMK AC8 PRESFR SLP178
Loading
Personal Weather Stations






























Interactive Weather Map
Tropical Storm Tracking
New forecast layout! Learn more

10-Day Weather Forecast

Advertisements
Track Severe Weather on mobile